sensor_id;sensor_type;location;lat;lon;timestamp;pressure;altitude;pressure_sealevel;temperature;humidity
48053;BME280;33824;51.600;5.718;2022-08-21T00:01:16;101540.91;;;16.38;74.62
48053;BME280;33824;51.600;5.718;2022-08-21T00:03:43;101539.06;;;16.39;74.98
48053;BME280;33824;51.600;5.718;2022-08-21T00:06:09;101538.63;;;16.35;74.81
48053;BME280;33824;51.600;5.718;2022-08-21T00:08:35;101537.13;;;16.32;74.78
48053;BME280;33824;51.600;5.718;2022-08-21T00:11:01;101537.13;;;16.32;74.89
48053;BME280;33824;51.600;5.718;2022-08-21T00:13:27;101534.66;;;16.31;75.13
48053;BME280;33824;51.600;5.718;2022-08-21T00:15:52;101531.31;;;16.29;74.82
48053;BME280;33824;51.600;5.718;2022-08-21T00:18:18;101526.97;;;16.28;75.07
48053;BME280;33824;51.600;5.718;2022-08-21T00:20:46;101532.53;;;16.26;75.07
48053;BME280;33824;51.600;5.718;2022-08-21T00:23:12;101536.91;;;16.27;75.38
48053;BME280;33824;51.600;5.718;2022-08-21T00:25:38;101523.84;;;16.24;75.42
48053;BME280;33824;51.600;5.718;2022-08-21T00:28:04;101521.31;;;16.23;75.59
48053;BME280;33824;51.600;5.718;2022-08-21T00:30:32;101515.28;;;16.21;75.60
48053;BME280;33824;51.600;5.718;2022-08-21T00:32:58;101525.44;;;16.19;75.49
48053;BME280;33824;51.600;5.718;2022-08-21T00:35:30;101514.41;;;16.14;75.82
48053;BME280;33824;51.600;5.718;2022-08-21T00:37:56;101512.56;;;16.14;76.26
48053;BME280;33824;51.600;5.718;2022-08-21T00:40:33;101516.47;;;16.12;76.66
48053;BME280;33824;51.600;5.718;2022-08-21T00:43:02;101519.16;;;16.12;76.46
48053;BME280;33824;51.600;5.718;2022-08-21T00:45:27;101518.94;;;16.13;76.43
48053;BME280;33824;51.600;5.718;2022-08-21T00:47:53;101510.09;;;16.13;76.39
48053;BME280;33824;51.600;5.718;2022-08-21T00:50:20;101511.94;;;16.12;76.73
48053;BME280;33824;51.600;5.718;2022-08-21T00:52:46;101516.25;;;16.13;76.41
48053;BME280;33824;51.600;5.718;2022-08-21T00:55:13;101517.31;;;16.12;76.46
48053;BME280;33824;51.600;5.718;2022-08-21T00:57:43;101517.50;;;16.11;76.60
48053;BME280;33824;51.600;5.718;2022-08-21T01:00:15;101507.13;;;16.08;76.46
48053;BME280;33824;51.600;5.718;2022-08-21T01:02:42;101519.56;;;16.09;76.52
48053;BME280;33824;51.600;5.718;2022-08-21T01:05:09;101516.88;;;16.09;76.56
48053;BME280;33824;51.600;5.718;2022-08-21T01:07:35;101515.00;;;16.09;76.60
48053;BME280;33824;51.600;5.718;2022-08-21T01:10:03;101522.25;;;16.09;76.61
48053;BME280;33824;51.600;5.718;2022-08-21T01:12:29;101518.72;;;16.08;76.84
48053;BME280;33824;51.600;5.718;2022-08-21T01:14:54;101516.03;;;16.08;76.87
48053;BME280;33824;51.600;5.718;2022-08-21T01:17:21;101516.03;;;16.08;76.85
48053;BME280;33824;51.600;5.718;2022-08-21T01:19:47;101519.75;;;16.07;76.95
48053;BME280;33824;51.600;5.718;2022-08-21T01:22:12;101522.44;;;16.07;76.69
48053;BME280;33824;51.600;5.718;2022-08-21T01:24:38;101520.56;;;16.08;77.03
48053;BME280;33824;51.600;5.718;2022-08-21T01:27:04;101522.44;;;16.07;76.76
48053;BME280;33824;51.600;5.718;2022-08-21T01:29:44;101515.72;;;15.97;77.04
48053;BME280;33824;51.600;5.718;2022-08-21T01:32:14;101516.34;;;15.99;77.00
48053;BME280;33824;51.600;5.718;2022-08-21T01:34:42;101518.84;;;16.00;77.12
48053;BME280;33824;51.600;5.718;2022-08-21T01:37:09;101516.16;;;16.00;77.26
48053;BME280;33824;51.600;5.718;2022-08-21T01:39:35;101517.19;;;15.99;77.28
48053;BME280;33824;51.600;5.718;2022-08-21T01:42:02;101517.41;;;15.98;77.43
48053;BME280;33824;51.600;5.718;2022-08-21T01:44:31;101514.88;;;15.96;77.53
48053;BME280;33824;51.600;5.718;2022-08-21T01:46:58;101507.22;;;15.93;77.46
48053;BME280;33824;51.600;5.718;2022-08-21T01:49:24;101510.91;;;15.92;77.80
48053;BME280;33824;51.600;5.718;2022-08-21T01:51:49;101508.63;;;15.89;77.79
48053;BME280;33824;51.600;5.718;2022-08-21T01:54:16;101509.81;;;15.87;77.66
48053;BME280;33824;51.600;5.718;2022-08-21T01:56:47;101507.91;;;15.80;77.87
48053;BME280;33824;51.600;5.718;2022-08-21T01:59:13;101510.78;;;15.79;78.22
48053;BME280;33824;51.600;5.718;2022-08-21T02:01:38;101512.44;;;15.80;78.17
48053;BME280;33824;51.600;5.718;2022-08-21T02:04:08;101509.13;;;15.78;78.29
48053;BME280;33824;51.600;5.718;2022-08-21T02:06:35;101504.78;;;15.77;78.12
48053;BME280;33824;51.600;5.718;2022-08-21T02:09:04;101502.66;;;15.72;77.87
48053;BME280;33824;51.600;5.718;2022-08-21T02:11:31;101501.81;;;15.72;78.24
48053;BME280;33824;51.600;5.718;2022-08-21T02:13:56;101503.88;;;15.70;78.36
48053;BME280;33824;51.600;5.718;2022-08-21T02:16:22;101508.59;;;15.68;78.41
48053;BME280;33824;51.600;5.718;2022-08-21T02:18:48;101498.44;;;15.63;78.46
48053;BME280;33824;51.600;5.718;2022-08-21T02:21:13;101499.44;;;15.62;78.32
48053;BME280;33824;51.600;5.718;2022-08-21T02:23:39;101492.63;;;15.60;78.43
48053;BME280;33824;51.600;5.718;2022-08-21T02:26:07;101486.75;;;15.56;78.55
48053;BME280;33824;51.600;5.718;2022-08-21T02:28:34;101499.19;;;15.57;78.52
48053;BME280;33824;51.600;5.718;2022-08-21T02:31:01;101498.34;;;15.57;78.54
48053;BME280;33824;51.600;5.718;2022-08-21T02:33:27;101490.03;;;15.52;78.61
48053;BME280;33824;51.600;5.718;2022-08-21T02:35:54;101484.38;;;15.47;78.68
48053;BME280;33824;51.600;5.718;2022-08-21T02:38:23;101490.69;;;15.39;78.64
48053;BME280;33824;51.600;5.718;2022-08-21T02:40:50;101488.00;;;15.39;78.99
48053;BME280;33824;51.600;5.718;2022-08-21T02:43:17;101482.81;;;15.37;78.93
48053;BME280;33824;51.600;5.718;2022-08-21T02:45:44;101486.88;;;15.33;78.90
48053;BME280;33824;51.600;5.718;2022-08-21T02:48:13;101474.63;;;15.24;78.86
48053;BME280;33824;51.600;5.718;2022-08-21T02:50:43;101475.34;;;15.18;78.97
48053;BME280;33824;51.600;5.718;2022-08-21T02:53:11;101470.28;;;15.09;78.99
48053;BME280;33824;51.600;5.718;2022-08-21T02:55:38;101473.75;;;15.03;79.32
48053;BME280;33824;51.600;5.718;2022-08-21T02:58:06;101473.19;;;14.93;79.14
48053;BME280;33824;51.600;5.718;2022-08-21T03:00:34;101479.75;;;14.90;79.41
48053;BME280;33824;51.600;5.718;2022-08-21T03:03:00;101471.41;;;14.85;79.23
48053;BME280;33824;51.600;5.718;2022-08-21T03:05:27;101478.00;;;14.82;79.40
48053;BME280;33824;51.600;5.718;2022-08-21T03:07:54;101474.50;;;14.82;79.41
48053;BME280;33824;51.600;5.718;2022-08-21T03:10:21;101465.78;;;14.80;79.71
48053;BME280;33824;51.600;5.718;2022-08-21T03:12:47;101470.50;;;14.78;79.32
48053;BME280;33824;51.600;5.718;2022-08-21T03:15:15;101471.53;;;14.77;79.46
48053;BME280;33824;51.600;5.718;2022-08-21T03:17:43;101465.31;;;14.76;79.75
48053;BME280;33824;51.600;5.718;2022-08-21T03:20:09;101462.84;;;14.75;80.00
48053;BME280;33824;51.600;5.718;2022-08-21T03:22:35;101458.47;;;14.74;80.37
48053;BME280;33824;51.600;5.718;2022-08-21T03:25:02;101463.84;;;14.74;80.31
48053;BME280;33824;51.600;5.718;2022-08-21T03:27:28;101462.84;;;14.75;80.54
48053;BME280;33824;51.600;5.718;2022-08-21T03:29:54;101471.06;;;14.73;80.56
48053;BME280;33824;51.600;5.718;2022-08-21T03:32:20;101471.44;;;14.70;80.51
48053;BME280;33824;51.600;5.718;2022-08-21T03:34:46;101474.13;;;14.70;80.81
48053;BME280;33824;51.600;5.718;2022-08-21T03:37:13;101468.47;;;14.65;80.42
48053;BME280;33824;51.600;5.718;2022-08-21T03:39:39;101465.97;;;14.64;80.59
48053;BME280;33824;51.600;5.718;2022-08-21T03:42:05;101469.69;;;14.63;80.73
48053;BME280;33824;51.600;5.718;2022-08-21T03:44:35;101472.53;;;14.61;80.87
48053;BME280;33824;51.600;5.718;2022-08-21T03:47:01;101470.22;;;14.58;80.98
48053;BME280;33824;51.600;5.718;2022-08-21T03:49:26;101469.38;;;14.58;81.15
48053;BME280;33824;51.600;5.718;2022-08-21T03:51:52;101465.88;;;14.57;81.64
48053;BME280;33824;51.600;5.718;2022-08-21T03:54:18;101467.91;;;14.55;81.12
48053;BME280;33824;51.600;5.718;2022-08-21T03:56:43;101472.28;;;14.56;81.22
48053;BME280;33824;51.600;5.718;2022-08-21T03:59:09;101466.06;;;14.56;81.25
48053;BME280;33824;51.600;5.718;2022-08-21T04:01:34;101470.78;;;14.54;81.04
48053;BME280;33824;51.600;5.718;2022-08-21T04:03:59;101470.78;;;14.54;81.25
48053;BME280;33824;51.600;5.718;2022-08-21T04:06:25;101470.97;;;14.52;81.21
48053;BME280;33824;51.600;5.718;2022-08-21T04:08:52;101473.84;;;14.51;81.07
48053;BME280;33824;51.600;5.718;2022-08-21T04:11:18;101466.00;;;14.49;81.30
48053;BME280;33824;51.600;5.718;2022-08-21T04:13:45;101467.00;;;14.48;81.47
48053;BME280;33824;51.600;5.718;2022-08-21T04:16:11;101467.84;;;14.49;81.43
48053;BME280;33824;51.600;5.718;2022-08-21T04:18:37;101467.38;;;14.45;81.64
48053;BME280;33824;51.600;5.718;2022-08-21T04:21:03;101465.69;;;14.44;81.48
48053;BME280;33824;51.600;5.718;2022-08-21T04:23:29;101475.75;;;14.42;81.75
48053;BME280;33824;51.600;5.718;2022-08-21T04:25:55;101474.28;;;14.39;81.76
48053;BME280;33824;51.600;5.718;2022-08-21T04:28:23;101470.97;;;14.37;81.88
48053;BME280;33824;51.600;5.718;2022-08-21T04:30:50;101471.47;;;14.33;81.84
48053;BME280;33824;51.600;5.718;2022-08-21T04:33:17;101471.66;;;14.31;81.86
48053;BME280;33824;51.600;5.718;2022-08-21T04:35:43;101469.34;;;14.28;82.00
48053;BME280;33824;51.600;5.718;2022-08-21T04:38:09;101464.16;;;14.27;82.19
48053;BME280;33824;51.600;5.718;2022-08-21T04:40:34;101469.88;;;14.24;82.37
48053;BME280;33824;51.600;5.718;2022-08-21T04:43:04;101471.94;;;14.22;82.26
48053;BME280;33824;51.600;5.718;2022-08-21T04:45:52;101474.78;;;14.20;82.57
48053;BME280;33824;51.600;5.718;2022-08-21T04:48:21;101476.00;;;14.18;82.54
48053;BME280;33824;51.600;5.718;2022-08-21T04:50:57;101484.03;;;14.18;82.63
48053;BME280;33824;51.600;5.718;2022-08-21T04:53:39;101485.78;;;14.11;82.90
48053;BME280;33824;51.600;5.718;2022-08-21T04:56:10;101488.09;;;14.14;83.48
48053;BME280;33824;51.600;5.718;2022-08-21T04:58:38;101482.66;;;14.22;83.45
48053;BME280;33824;51.600;5.718;2022-08-21T05:01:06;101492.66;;;14.28;84.00
48053;BME280;33824;51.600;5.718;2022-08-21T05:03:32;101499.31;;;14.32;84.15
48053;BME280;33824;51.600;5.718;2022-08-21T05:05:59;101504.81;;;14.38;84.04
48053;BME280;33824;51.600;5.718;2022-08-21T05:08:26;101500.56;;;14.44;84.34
48053;BME280;33824;51.600;5.718;2022-08-21T05:10:53;101503.81;;;14.54;84.19
48053;BME280;33824;51.600;5.718;2022-08-21T05:13:19;101494.84;;;14.62;84.33
48053;BME280;33824;51.600;5.718;2022-08-21T05:15:45;101502.81;;;14.70;84.23
48053;BME280;33824;51.600;5.718;2022-08-21T05:18:11;101496.13;;;14.80;84.57
48053;BME280;33824;51.600;5.718;2022-08-21T05:20:37;101493.38;;;14.88;84.52
48053;BME280;33824;51.600;5.718;2022-08-21T05:23:11;101493.94;;;14.99;83.93
48053;BME280;33824;51.600;5.718;2022-08-21T05:25:36;101494.75;;;15.14;84.37
48053;BME280;33824;51.600;5.718;2022-08-21T05:28:03;101495.25;;;15.24;83.74
48053;BME280;33824;51.600;5.718;2022-08-21T05:30:29;101498.28;;;15.35;83.53
48053;BME280;33824;51.600;5.718;2022-08-21T05:32:59;101504.41;;;15.44;83.69
48053;BME280;33824;51.600;5.718;2022-08-21T05:35:26;101502.25;;;15.54;83.87
48053;BME280;33824;51.600;5.718;2022-08-21T05:37:52;101500.53;;;15.68;83.50
48053;BME280;33824;51.600;5.718;2022-08-21T05:40:17;101502.25;;;15.75;82.96
48053;BME280;33824;51.600;5.718;2022-08-21T05:42:44;101510.19;;;15.83;82.77
48053;BME280;33824;51.600;5.718;2022-08-21T05:45:09;101515.06;;;15.95;82.46
48053;BME280;33824;51.600;5.718;2022-08-21T05:47:35;101510.66;;;16.08;82.37
48053;BME280;33824;51.600;5.718;2022-08-21T05:50:02;101513.00;;;16.18;82.05
48053;BME280;33824;51.600;5.718;2022-08-21T05:52:27;101518.25;;;16.26;81.83
48053;BME280;33824;51.600;5.718;2022-08-21T05:54:52;101520.63;;;16.36;81.99
48053;BME280;33824;51.600;5.718;2022-08-21T05:57:21;101521.94;;;16.46;81.58
48053;BME280;33824;51.600;5.718;2022-08-21T05:59:49;101518.50;;;16.59;81.18
48053;BME280;33824;51.600;5.718;2022-08-21T06:02:17;101516.09;;;16.70;80.68
48053;BME280;33824;51.600;5.718;2022-08-21T06:04:43;101523.44;;;16.83;80.15
48053;BME280;33824;51.600;5.718;2022-08-21T06:07:09;101512.94;;;16.95;80.06
48053;BME280;33824;51.600;5.718;2022-08-21T06:09:34;101516.75;;;17.07;79.86
48053;BME280;33824;51.600;5.718;2022-08-21T06:12:18;101504.28;;;17.06;79.53
48053;BME280;33824;51.600;5.718;2022-08-21T06:14:43;101502.09;;;17.29;79.18
48053;BME280;33824;51.600;5.718;2022-08-21T06:17:11;101512.31;;;17.40;78.74
48053;BME280;33824;51.600;5.718;2022-08-21T06:19:37;101509.69;;;17.60;78.75
48053;BME280;33824;51.600;5.718;2022-08-21T06:22:03;101509.72;;;17.66;77.75
48053;BME280;33824;51.600;5.718;2022-08-21T06:24:29;101517.63;;;17.81;77.79
48053;BME280;33824;51.600;5.718;2022-08-21T06:26:56;101514.72;;;17.96;77.24
48053;BME280;33824;51.600;5.718;2022-08-21T06:29:21;101513.50;;;18.11;77.03
48053;BME280;33824;51.600;5.718;2022-08-21T06:31:48;101508.72;;;18.20;76.64
48053;BME280;33824;51.600;5.718;2022-08-21T06:34:14;101512.66;;;18.31;76.12
48053;BME280;33824;51.600;5.718;2022-08-21T06:36:40;101514.75;;;18.48;76.10
48053;BME280;33824;51.600;5.718;2022-08-21T06:39:06;101513.09;;;18.54;75.58
48053;BME280;33824;51.600;5.718;2022-08-21T06:41:32;101512.03;;;18.61;75.64
48053;BME280;33824;51.600;5.718;2022-08-21T06:43:57;101514.09;;;18.79;75.33
48053;BME280;33824;51.600;5.718;2022-08-21T06:46:30;101512.38;;;18.91;74.61
48053;BME280;33824;51.600;5.718;2022-08-21T06:48:56;101511.72;;;19.09;74.63
48053;BME280;33824;51.600;5.718;2022-08-21T06:51:23;101511.09;;;19.13;74.14
48053;BME280;33824;51.600;5.718;2022-08-21T06:53:51;101506.88;;;19.24;73.77
48053;BME280;33824;51.600;5.718;2022-08-21T06:56:16;101507.88;;;19.30;73.24
48053;BME280;33824;51.600;5.718;2022-08-21T06:58:41;101507.03;;;19.29;73.31
48053;BME280;33824;51.600;5.718;2022-08-21T07:01:07;101506.97;;;19.49;72.79
48053;BME280;33824;51.600;5.718;2022-08-21T07:03:36;101510.03;;;19.66;72.69
48053;BME280;33824;51.600;5.718;2022-08-21T07:06:03;101507.59;;;19.82;72.52
48053;BME280;33824;51.600;5.718;2022-08-21T07:08:30;101506.47;;;19.96;71.91
48053;BME280;33824;51.600;5.718;2022-08-21T07:10:59;101507.34;;;19.90;71.38
48053;BME280;33824;51.600;5.718;2022-08-21T07:13:25;101501.47;;;20.00;71.16
48053;BME280;33824;51.600;5.718;2022-08-21T07:15:51;101498.69;;;20.06;71.29
48053;BME280;33824;51.600;5.718;2022-08-21T07:18:17;101499.63;;;20.19;70.68
48053;BME280;33824;51.600;5.718;2022-08-21T07:20:43;101493.75;;;20.28;70.75
48053;BME280;33824;51.600;5.718;2022-08-21T07:23:26;101500.28;;;20.14;70.18
48053;BME280;33824;51.600;5.718;2022-08-21T07:25:53;101499.34;;;20.51;71.09
48053;BME280;33824;51.600;5.718;2022-08-21T07:28:19;101502.50;;;20.73;70.63
48053;BME280;33824;51.600;5.718;2022-08-21T07:30:44;101508.59;;;20.87;69.49
48053;BME280;33824;51.600;5.718;2022-08-21T07:33:10;101502.41;;;20.98;69.07
48053;BME280;33824;51.600;5.718;2022-08-21T07:35:36;101501.44;;;21.11;68.81
48053;BME280;33824;51.600;5.718;2022-08-21T07:38:01;101491.72;;;21.21;68.52
48053;BME280;33824;51.600;5.718;2022-08-21T07:40:26;101493.38;;;21.22;68.71
48053;BME280;33824;51.600;5.718;2022-08-21T07:42:52;101491.94;;;21.38;68.81
48053;BME280;33824;51.600;5.718;2022-08-21T07:45:22;101493.16;;;21.53;67.71
48053;BME280;33824;51.600;5.718;2022-08-21T07:47:50;101499.41;;;21.54;68.13
48053;BME280;33824;51.600;5.718;2022-08-21T07:50:15;101498.31;;;21.43;68.00
48053;BME280;33824;51.600;5.718;2022-08-21T07:52:42;101496.00;;;21.29;68.70
48053;BME280;33824;51.600;5.718;2022-08-21T07:55:10;101500.69;;;21.22;68.40
48053;BME280;33824;51.600;5.718;2022-08-21T07:57:36;101492.16;;;21.36;68.79
48053;BME280;33824;51.600;5.718;2022-08-21T08:00:08;101498.25;;;21.62;68.30
48053;BME280;33824;51.600;5.718;2022-08-21T08:02:34;101495.25;;;21.81;67.59
48053;BME280;33824;51.600;5.718;2022-08-21T08:05:01;101490.78;;;21.87;68.19
48053;BME280;33824;51.600;5.718;2022-08-21T08:07:27;101494.34;;;21.87;67.97
48053;BME280;33824;51.600;5.718;2022-08-21T08:09:53;101498.06;;;22.05;67.41
48053;BME280;33824;51.600;5.718;2022-08-21T08:12:18;101493.44;;;22.05;66.88
48053;BME280;33824;51.600;5.718;2022-08-21T08:14:45;101493.13;;;22.13;67.17
48053;BME280;33824;51.600;5.718;2022-08-21T08:17:10;101495.84;;;22.25;66.78
48053;BME280;33824;51.600;5.718;2022-08-21T08:19:36;101491.25;;;22.37;66.17
48053;BME280;33824;51.600;5.718;2022-08-21T08:22:01;101484.63;;;22.68;65.98
48053;BME280;33824;51.600;5.718;2022-08-21T08:24:27;101488.50;;;22.72;65.53
48053;BME280;33824;51.600;5.718;2022-08-21T08:26:52;101484.25;;;22.87;65.33
48053;BME280;33824;51.600;5.718;2022-08-21T08:29:20;101484.81;;;23.01;65.43
48053;BME280;33824;51.600;5.718;2022-08-21T08:31:46;101488.88;;;23.27;64.58
48053;BME280;33824;51.600;5.718;2022-08-21T08:34:11;101485.63;;;23.41;64.04
48053;BME280;33824;51.600;5.718;2022-08-21T08:36:37;101479.25;;;23.64;63.32
48053;BME280;33824;51.600;5.718;2022-08-21T08:39:03;101475.47;;;23.65;63.70
48053;BME280;33824;51.600;5.718;2022-08-21T08:41:29;101476.44;;;23.59;63.20
48053;BME280;33824;51.600;5.718;2022-08-21T08:44:00;101472.19;;;23.80;62.50
48053;BME280;33824;51.600;5.718;2022-08-21T08:46:35;101464.69;;;24.04;61.63
48053;BME280;33824;51.600;5.718;2022-08-21T08:54:09;101465.53;;;24.04;61.06
48053;BME280;33824;51.600;5.718;2022-08-21T08:56:36;101452.56;;;24.11;60.97
48053;BME280;33824;51.600;5.718;2022-08-21T09:01:43;101454.34;;;24.77;60.80
48053;BME280;33824;51.600;5.718;2022-08-21T09:04:09;101442.69;;;25.04;59.14
48053;BME280;33824;51.600;5.718;2022-08-21T09:06:55;101450.75;;;25.15;58.11
48053;BME280;33824;51.600;5.718;2022-08-21T09:09:33;101439.91;;;25.47;58.02
48053;BME280;33824;51.600;5.718;2022-08-21T09:17:44;101437.34;;;24.70;57.09
48053;BME280;33824;51.600;5.718;2022-08-21T09:20:20;101439.97;;;25.04;56.95
48053;BME280;33824;51.600;5.718;2022-08-21T09:26:12;101443.16;;;24.96;55.47
48053;BME280;33824;51.600;5.718;2022-08-21T09:28:38;101437.16;;;25.20;56.27
48053;BME280;33824;51.600;5.718;2022-08-21T09:31:08;101436.75;;;25.07;56.32
48053;BME280;33824;51.600;5.718;2022-08-21T09:33:36;101432.06;;;25.29;55.82
48053;BME280;33824;51.600;5.718;2022-08-21T09:36:03;101435.72;;;25.40;55.96
48053;BME280;33824;51.600;5.718;2022-08-21T09:38:34;101438.63;;;25.55;53.97
48053;BME280;33824;51.600;5.718;2022-08-21T09:41:07;101440.06;;;25.62;52.87
48053;BME280;33824;51.600;5.718;2022-08-21T09:43:35;101433.22;;;25.92;53.97
48053;BME280;33824;51.600;5.718;2022-08-21T09:46:19;101432.38;;;25.86;51.89
48053;BME280;33824;51.600;5.718;2022-08-21T09:48:48;101438.97;;;25.95;52.49
48053;BME280;33824;51.600;5.718;2022-08-21T09:56:57;101437.78;;;25.81;51.44
48053;BME280;33824;51.600;5.718;2022-08-21T09:59:46;101435.28;;;25.79;51.23
48053;BME280;33824;51.600;5.718;2022-08-21T10:02:30;101437.56;;;25.88;50.57
48053;BME280;33824;51.600;5.718;2022-08-21T10:05:19;101426.03;;;26.17;50.40
48053;BME280;33824;51.600;5.718;2022-08-21T10:07:45;101427.31;;;26.42;50.86
48053;BME280;33824;51.600;5.718;2022-08-21T10:10:18;101432.66;;;26.79;49.43
48053;BME280;33824;51.600;5.718;2022-08-21T10:15:56;101421.00;;;26.98;48.15
48053;BME280;33824;51.600;5.718;2022-08-21T10:18:28;101416.41;;;27.04;48.15
48053;BME280;33824;51.600;5.718;2022-08-21T10:21:18;101422.53;;;26.69;48.54
48053;BME280;33824;51.600;5.718;2022-08-21T10:29:51;101435.63;;;25.83;48.31
48053;BME280;33824;51.600;5.718;2022-08-21T10:35:22;101428.38;;;25.67;49.56
48053;BME280;33824;51.600;5.718;2022-08-21T10:38:00;101431.69;;;25.20;50.46
48053;BME280;33824;51.600;5.718;2022-08-21T10:40:51;101439.50;;;25.12;50.82
48053;BME280;33824;51.600;5.718;2022-08-21T10:43:34;101440.34;;;25.12;51.37
48053;BME280;33824;51.600;5.718;2022-08-21T10:46:47;101434.31;;;25.59;50.42
48053;BME280;33824;51.600;5.718;2022-08-21T10:49:24;101423.72;;;26.36;50.23
48053;BME280;33824;51.600;5.718;2022-08-21T11:00:13;101435.03;;;26.18;47.40
48053;BME280;33824;51.600;5.718;2022-08-21T11:03:00;101429.94;;;26.27;46.35
48053;BME280;33824;51.600;5.718;2022-08-21T11:05:35;101426.84;;;26.13;46.85
48053;BME280;33824;51.600;5.718;2022-08-21T11:08:12;101429.34;;;25.83;48.06
48053;BME280;33824;51.600;5.718;2022-08-21T11:10:44;101427.84;;;26.02;49.13
48053;BME280;33824;51.600;5.718;2022-08-21T11:13:31;101422.09;;;26.03;48.31
48053;BME280;33824;51.600;5.718;2022-08-21T11:16:10;101421.16;;;25.88;48.99
48053;BME280;33824;51.600;5.718;2022-08-21T11:18:47;101424.22;;;25.59;48.18
48053;BME280;33824;51.600;5.718;2022-08-21T11:21:26;101422.03;;;25.93;48.24
48053;BME280;33824;51.600;5.718;2022-08-21T11:23:57;101426.53;;;26.09;48.03
48053;BME280;33824;51.600;5.718;2022-08-21T11:26:41;101424.06;;;26.08;47.75
48053;BME280;33824;51.600;5.718;2022-08-21T11:29:17;101426.53;;;26.14;46.57
48053;BME280;33824;51.600;5.718;2022-08-21T11:37:43;101412.47;;;25.96;46.09
48053;BME280;33824;51.600;5.718;2022-08-21T11:42:58;101418.19;;;26.26;46.90
48053;BME280;33824;51.600;5.718;2022-08-21T11:45:33;101414.44;;;26.00;45.95
48053;BME280;33824;51.600;5.718;2022-08-21T11:48:16;101407.44;;;25.77;47.09
48053;BME280;33824;51.600;5.718;2022-08-21T11:50:47;101410.28;;;25.93;47.50
48053;BME280;33824;51.600;5.718;2022-08-21T11:56:08;101409.16;;;26.78;46.28
48053;BME280;33824;51.600;5.718;2022-08-21T11:58:53;101408.97;;;26.94;44.96
48053;BME280;33824;51.600;5.718;2022-08-21T12:01:23;101408.88;;;26.79;45.97
48053;BME280;33824;51.600;5.718;2022-08-21T12:04:18;101414.28;;;26.64;46.06
48053;BME280;33824;51.600;5.718;2022-08-21T12:06:47;101411.47;;;27.01;44.55
48053;BME280;33824;51.600;5.718;2022-08-21T12:12:01;101418.69;;;27.47;44.33
48053;BME280;33824;51.600;5.718;2022-08-21T12:17:55;101422.19;;;27.12;42.62
48053;BME280;33824;51.600;5.718;2022-08-21T12:23:05;101420.03;;;26.67;42.83
48053;BME280;33824;51.600;5.718;2022-08-21T12:25:41;101431.41;;;26.39;44.33
48053;BME280;33824;51.600;5.718;2022-08-21T12:28:09;101420.72;;;26.33;44.47
48053;BME280;33824;51.600;5.718;2022-08-21T12:30:39;101420.03;;;26.62;43.71
48053;BME280;33824;51.600;5.718;2022-08-21T12:35:43;101422.91;;;26.41;43.88
48053;BME280;33824;51.600;5.718;2022-08-21T12:38:15;101419.28;;;26.25;44.00
48053;BME280;33824;51.600;5.718;2022-08-21T12:40:53;101428.16;;;26.10;44.68
48053;BME280;33824;51.600;5.718;2022-08-21T12:43:33;101423.69;;;26.31;44.68
48053;BME280;33824;51.600;5.718;2022-08-21T12:45:59;101411.81;;;26.57;43.76
48053;BME280;33824;51.600;5.718;2022-08-21T12:48:33;101417.72;;;26.39;44.26
48053;BME280;33824;51.600;5.718;2022-08-21T12:51:13;101421.34;;;26.50;44.24
48053;BME280;33824;51.600;5.718;2022-08-21T12:56:19;101411.03;;;27.49;42.59
48053;BME280;33824;51.600;5.718;2022-08-21T12:58:48;101405.00;;;27.88;41.74
48053;BME280;33824;51.600;5.718;2022-08-21T13:01:21;101408.81;;;28.22;40.75
48053;BME280;33824;51.600;5.718;2022-08-21T13:03:50;101405.44;;;28.60;40.00
48053;BME280;33824;51.600;5.718;2022-08-21T13:06:17;101397.44;;;28.64;38.28
48053;BME280;33824;51.600;5.718;2022-08-21T13:08:45;101391.94;;;28.74;38.60
48053;BME280;33824;51.600;5.718;2022-08-21T13:11:15;101401.91;;;28.40;38.58
48053;BME280;33824;51.600;5.718;2022-08-21T13:13:42;101398.56;;;28.58;39.01
48053;BME280;33824;51.600;5.718;2022-08-21T13:16:08;101405.75;;;28.39;39.34
48053;BME280;33824;51.600;5.718;2022-08-21T13:18:51;101407.19;;;28.16;39.11
48053;BME280;33824;51.600;5.718;2022-08-21T13:21:17;101404.72;;;28.09;40.37
48053;BME280;33824;51.600;5.718;2022-08-21T13:23:42;101411.03;;;27.90;40.51
48053;BME280;33824;51.600;5.718;2022-08-21T13:26:16;101411.03;;;27.64;40.40
48053;BME280;33824;51.600;5.718;2022-08-21T13:28:41;101411.00;;;28.20;40.63
48053;BME280;33824;51.600;5.718;2022-08-21T13:31:09;101409.63;;;28.33;41.13
48053;BME280;33824;51.600;5.718;2022-08-21T13:33:40;101414.03;;;27.98;40.41
48053;BME280;33824;51.600;5.718;2022-08-21T13:36:11;101410.47;;;27.78;40.16
48053;BME280;33824;51.600;5.718;2022-08-21T13:38:40;101412.94;;;27.59;39.98
48053;BME280;33824;51.600;5.718;2022-08-21T13:41:24;101403.63;;;27.55;40.71
48053;BME280;33824;51.600;5.718;2022-08-21T13:43:59;101399.22;;;28.04;39.82
48053;BME280;33824;51.600;5.718;2022-08-21T13:46:28;101394.00;;;28.28;39.93
48053;BME280;33824;51.600;5.718;2022-08-21T13:48:54;101401.66;;;28.36;39.05
48053;BME280;33824;51.600;5.718;2022-08-21T13:51:20;101392.34;;;28.32;39.29
48053;BME280;33824;51.600;5.718;2022-08-21T13:53:49;101399.25;;;28.15;38.44
48053;BME280;33824;51.600;5.718;2022-08-21T13:58:48;101393.72;;;28.04;39.85
48053;BME280;33824;51.600;5.718;2022-08-21T14:01:35;101392.97;;;27.89;39.20
48053;BME280;33824;51.600;5.718;2022-08-21T14:04:33;101391.88;;;27.85;40.50
48053;BME280;33824;51.600;5.718;2022-08-21T14:07:00;101381.16;;;27.93;40.37
48053;BME280;33824;51.600;5.718;2022-08-21T14:09:28;101394.06;;;27.67;40.42
48053;BME280;33824;51.600;5.718;2022-08-21T14:11:55;101385.56;;;27.59;40.28